This is the latest recevied weather packets stored in our database for station/object KF6ILA. If no packets are shown the sender has not sent any weather packets the latest 10 day(s).
| Time | Temp. | Humidity | Pressure | Rain* | Wind** | Luminosity | Snow |
|---|---|---|---|---|---|---|---|
| 1787963553 | 30° C | 42% | 1015.9 hPa | 0 mm | - | 329 W/m² | - |
| 1787962959 | 30° C | 42% | 1015.9 hPa | 0 mm | - | 366 W/m² | - |
| 1787962365 | 30.56° C | 40% | 1015.7 hPa | 0 mm | - | 404 W/m² | - |
| 1787961474 | 31.11° C | 38% | 1015.8 hPa | 0 mm | - | 457 W/m² | - |
| 1787961177 | 31.67° C | 39% | 1015.8 hPa | 0 mm | - | 473 W/m² | - |
| 1787960583 | 31.11° C | 39% | 1015.7 hPa | 0 mm | - | 508 W/m² | - |
| 1787959692 | 31.11° C | 39% | 1015.4 hPa | 0 mm | - | 555 W/m² | - |
| 1787959395 | 31.11° C | 39% | 1015.4 hPa | 0 mm | - | 570 W/m² | - |
| 1787959098 | 31.67° C | 39% | 1015.4 hPa | 0 mm | - | 589 W/m² | - |
| 1787958801 | 31.67° C | 40% | 1015.6 hPa | 0 mm | - | 601 W/m² | - |
| 1787957613 | 32.22° C | 40% | 1015.9 hPa | 0 mm | - | 654 W/m² | - |
| 1787957316 | 32.22° C | 41% | 1016 hPa | 0 mm | - | 673 W/m² | - |
| 1787956722 | 32.22° C | 41% | 1016 hPa | 0 mm | - | 696 W/m² | - |
| 1787956425 | 32.22° C | 41% | 1015.9 hPa | 0 mm | - | 714 W/m² | - |
| 1787956128 | 32.22° C | 42% | 1016.1 hPa | 0 mm | - | 728 W/m² | - |
| 1787955534 | 32.22° C | 42% | 1016.2 hPa | 0 mm | - | 731 W/m² | - |
| 1787954940 | 33.33° C | 39% | 1016.4 hPa | 0 mm | - | 756 W/m² | - |
| 1787954657 | 33.89° C | 33% | 1016.6 hPa | 0 mm | - | 809 W/m² | - |
| 1787954643 | 33.33° C | 39% | 1016.3 hPa | 0 mm | - | 775 W/m² | - |
| 1787954049 | 33.89° C | 33% | 1016.6 hPa | 0 mm | - | 809 W/m² | - |
| 1787953752 | 33.89° C | 31% | 1016.6 hPa | 0 mm | - | 828 W/m² | - |
| 1787953158 | 33.89° C | 32% | 1016.9 hPa | 0 mm | - | 844 W/m² | - |
| 1787952861 | 33.89° C | 31% | 1017 hPa | 0 mm | - | 860 W/m² | - |
| 1787952564 | 33.89° C | 30% | 1017 hPa | 0 mm | - | 861 W/m² | - |
| 1787952267 | 33.89° C | 31% | 1017.2 hPa | 0 mm | - | 868 W/m² | - |
* Rain latest hour (hover to see other rain measurements)
** Current wind speed in m/s (hover to see current wind gust speed)